sensor_id;sensor_type;location;lat;lon;timestamp;P1;durP1;ratioP1;P2;durP2;ratioP2
20080;SDS011;10200;49.232;9.222;2022-09-11T00:00:46;2.20;;;1.30;;
20080;SDS011;10200;49.232;9.222;2022-09-11T00:03:14;3.17;;;1.60;;
20080;SDS011;10200;49.232;9.222;2022-09-11T00:05:41;2.73;;;1.77;;
20080;SDS011;10200;49.232;9.222;2022-09-11T00:08:08;4.67;;;1.50;;
20080;SDS011;10200;49.232;9.222;2022-09-11T00:10:37;1.67;;;1.40;;
20080;SDS011;10200;49.232;9.222;2022-09-11T00:13:06;5.60;;;2.10;;
20080;SDS011;10200;49.232;9.222;2022-09-11T00:15:45;1.93;;;1.33;;
20080;SDS011;10200;49.232;9.222;2022-09-11T00:18:13;1.93;;;1.80;;
20080;SDS011;10200;49.232;9.222;2022-09-11T00:20:46;2.33;;;1.53;;
20080;SDS011;10200;49.232;9.222;2022-09-11T00:23:16;4.00;;;1.47;;
20080;SDS011;10200;49.232;9.222;2022-09-11T00:25:43;3.23;;;1.23;;
20080;SDS011;10200;49.232;9.222;2022-09-11T00:28:11;4.83;;;1.50;;
20080;SDS011;10200;49.232;9.222;2022-09-11T00:30:41;2.40;;;1.67;;
20080;SDS011;10200;49.232;9.222;2022-09-11T00:33:09;3.10;;;1.40;;
20080;SDS011;10200;49.232;9.222;2022-09-11T00:35:39;2.57;;;1.87;;
20080;SDS011;10200;49.232;9.222;2022-09-11T00:38:06;6.93;;;1.80;;
20080;SDS011;10200;49.232;9.222;2022-09-11T00:40:54;4.17;;;1.77;;
20080;SDS011;10200;49.232;9.222;2022-09-11T00:43:19;4.73;;;1.87;;
20080;SDS011;10200;49.232;9.222;2022-09-11T00:45:46;3.83;;;1.70;;
20080;SDS011;10200;49.232;9.222;2022-09-11T00:48:18;3.00;;;1.90;;
20080;SDS011;10200;49.232;9.222;2022-09-11T00:50:46;5.47;;;1.70;;
20080;SDS011;10200;49.232;9.222;2022-09-11T00:53:14;1.33;;;1.23;;
20080;SDS011;10200;49.232;9.222;2022-09-11T00:55:43;3.00;;;1.33;;
20080;SDS011;10200;49.232;9.222;2022-09-11T00:58:18;2.83;;;1.63;;
20080;SDS011;10200;49.232;9.222;2022-09-11T01:00:47;2.27;;;1.60;;
20080;SDS011;10200;49.232;9.222;2022-09-11T01:03:14;2.27;;;1.63;;
20080;SDS011;10200;49.232;9.222;2022-09-11T01:05:41;2.67;;;1.60;;
20080;SDS011;10200;49.232;9.222;2022-09-11T01:08:08;3.57;;;1.63;;
20080;SDS011;10200;49.232;9.222;2022-09-11T01:10:41;6.30;;;2.37;;
20080;SDS011;10200;49.232;9.222;2022-09-11T01:16:23;2.50;;;1.83;;
20080;SDS011;10200;49.232;9.222;2022-09-11T01:22:18;3.63;;;1.97;;
20080;SDS011;10200;49.232;9.222;2022-09-11T01:30:22;2.70;;;1.90;;
20080;SDS011;10200;49.232;9.222;2022-09-11T01:35:54;2.93;;;1.83;;
20080;SDS011;10200;49.232;9.222;2022-09-11T01:40:59;7.63;;;2.37;;
20080;SDS011;10200;49.232;9.222;2022-09-11T01:43:39;4.23;;;1.80;;
20080;SDS011;10200;49.232;9.222;2022-09-11T01:46:15;3.83;;;1.93;;
20080;SDS011;10200;49.232;9.222;2022-09-11T01:48:46;3.67;;;1.57;;
20080;SDS011;10200;49.232;9.222;2022-09-11T01:51:31;1.90;;;1.60;;
20080;SDS011;10200;49.232;9.222;2022-09-11T01:53:58;4.57;;;2.17;;
20080;SDS011;10200;49.232;9.222;2022-09-11T01:56:29;2.63;;;1.97;;
20080;SDS011;10200;49.232;9.222;2022-09-11T01:59:02;5.20;;;1.90;;
20080;SDS011;10200;49.232;9.222;2022-09-11T02:01:34;4.70;;;2.03;;
20080;SDS011;10200;49.232;9.222;2022-09-11T02:06:41;3.57;;;1.70;;
20080;SDS011;10200;49.232;9.222;2022-09-11T02:09:15;3.20;;;1.70;;
20080;SDS011;10200;49.232;9.222;2022-09-11T02:11:45;2.80;;;2.03;;
20080;SDS011;10200;49.232;9.222;2022-09-11T02:14:16;4.07;;;2.03;;
20080;SDS011;10200;49.232;9.222;2022-09-11T02:19:16;2.33;;;2.00;;
20080;SDS011;10200;49.232;9.222;2022-09-11T02:21:44;3.20;;;2.50;;
20080;SDS011;10200;49.232;9.222;2022-09-11T02:24:15;4.17;;;2.47;;
20080;SDS011;10200;49.232;9.222;2022-09-11T02:26:43;3.67;;;2.13;;
20080;SDS011;10200;49.232;9.222;2022-09-11T02:29:11;2.77;;;2.23;;
20080;SDS011;10200;49.232;9.222;2022-09-11T02:31:38;2.97;;;2.50;;
20080;SDS011;10200;49.232;9.222;2022-09-11T02:34:04;5.30;;;2.13;;
20080;SDS011;10200;49.232;9.222;2022-09-11T02:44:44;6.87;;;2.23;;
20080;SDS011;10200;49.232;9.222;2022-09-11T02:58:15;5.40;;;2.50;;
20080;SDS011;10200;49.232;9.222;2022-09-11T03:00:54;3.40;;;2.20;;
20080;SDS011;10200;49.232;9.222;2022-09-11T03:03:22;6.13;;;2.50;;
20080;SDS011;10200;49.232;9.222;2022-09-11T03:05:48;3.40;;;2.50;;
20080;SDS011;10200;49.232;9.222;2022-09-11T03:08:14;4.50;;;2.40;;
20080;SDS011;10200;49.232;9.222;2022-09-11T03:10:41;3.53;;;2.57;;
20080;SDS011;10200;49.232;9.222;2022-09-11T03:13:10;3.03;;;2.33;;
20080;SDS011;10200;49.232;9.222;2022-09-11T03:15:36;2.70;;;2.50;;
20080;SDS011;10200;49.232;9.222;2022-09-11T03:18:02;2.50;;;2.13;;
20080;SDS011;10200;49.232;9.222;2022-09-11T03:20:29;3.77;;;2.23;;
20080;SDS011;10200;49.232;9.222;2022-09-11T03:22:55;2.53;;;2.33;;
20080;SDS011;10200;49.232;9.222;2022-09-11T03:25:20;5.13;;;2.50;;
20080;SDS011;10200;49.232;9.222;2022-09-11T03:27:52;2.67;;;2.43;;
20080;SDS011;10200;49.232;9.222;2022-09-11T03:30:18;4.97;;;2.33;;
20080;SDS011;10200;49.232;9.222;2022-09-11T03:32:44;4.53;;;2.33;;
20080;SDS011;10200;49.232;9.222;2022-09-11T03:35:10;3.03;;;2.70;;
20080;SDS011;10200;49.232;9.222;2022-09-11T03:37:35;5.17;;;2.73;;
20080;SDS011;10200;49.232;9.222;2022-09-11T03:40:01;2.43;;;2.20;;
20080;SDS011;10200;49.232;9.222;2022-09-11T03:42:28;5.57;;;2.80;;
20080;SDS011;10200;49.232;9.222;2022-09-11T03:44:54;3.67;;;2.60;;
20080;SDS011;10200;49.232;9.222;2022-09-11T03:47:19;2.80;;;2.60;;
20080;SDS011;10200;49.232;9.222;2022-09-11T03:49:46;4.50;;;2.50;;
20080;SDS011;10200;49.232;9.222;2022-09-11T03:52:12;3.20;;;2.60;;
20080;SDS011;10200;49.232;9.222;2022-09-11T03:54:38;7.17;;;3.33;;
20080;SDS011;10200;49.232;9.222;2022-09-11T03:57:04;3.33;;;2.80;;
20080;SDS011;10200;49.232;9.222;2022-09-11T03:59:31;2.93;;;2.73;;
20080;SDS011;10200;49.232;9.222;2022-09-11T04:01:57;2.77;;;2.57;;
20080;SDS011;10200;49.232;9.222;2022-09-11T04:04:22;4.37;;;2.20;;
20080;SDS011;10200;49.232;9.222;2022-09-11T04:06:48;2.60;;;2.33;;
20080;SDS011;10200;49.232;9.222;2022-09-11T04:09:13;5.13;;;2.90;;
20080;SDS011;10200;49.232;9.222;2022-09-11T04:11:39;6.03;;;2.73;;
20080;SDS011;10200;49.232;9.222;2022-09-11T04:14:05;3.70;;;2.73;;
20080;SDS011;10200;49.232;9.222;2022-09-11T04:16:31;2.60;;;2.30;;
20080;SDS011;10200;49.232;9.222;2022-09-11T04:18:58;3.87;;;2.60;;
20080;SDS011;10200;49.232;9.222;2022-09-11T04:21:25;4.97;;;2.87;;
20080;SDS011;10200;49.232;9.222;2022-09-11T04:23:51;2.97;;;2.63;;
20080;SDS011;10200;49.232;9.222;2022-09-11T04:26:21;4.13;;;2.47;;
20080;SDS011;10200;49.232;9.222;2022-09-11T04:28:48;4.87;;;2.67;;
20080;SDS011;10200;49.232;9.222;2022-09-11T04:31:15;5.60;;;2.57;;
20080;SDS011;10200;49.232;9.222;2022-09-11T04:33:42;3.57;;;2.47;;
20080;SDS011;10200;49.232;9.222;2022-09-11T04:36:10;4.73;;;2.83;;
20080;SDS011;10200;49.232;9.222;2022-09-11T04:38:37;3.25;;;2.58;;
20080;SDS011;10200;49.232;9.222;2022-09-11T04:41:05;4.67;;;2.87;;
20080;SDS011;10200;49.232;9.222;2022-09-11T04:43:32;5.37;;;2.87;;
20080;SDS011;10200;49.232;9.222;2022-09-11T04:46:03;3.57;;;2.57;;
20080;SDS011;10200;49.232;9.222;2022-09-11T04:48:30;4.47;;;2.63;;
20080;SDS011;10200;49.232;9.222;2022-09-11T04:53:26;4.03;;;3.27;;
20080;SDS011;10200;49.232;9.222;2022-09-11T04:55:59;7.10;;;3.07;;
20080;SDS011;10200;49.232;9.222;2022-09-11T04:58:37;6.67;;;3.53;;
20080;SDS011;10200;49.232;9.222;2022-09-11T05:01:08;3.90;;;2.97;;
20080;SDS011;10200;49.232;9.222;2022-09-11T05:03:35;5.40;;;3.73;;
20080;SDS011;10200;49.232;9.222;2022-09-11T05:06:04;3.63;;;3.33;;
20080;SDS011;10200;49.232;9.222;2022-09-11T05:08:31;5.97;;;3.50;;
20080;SDS011;10200;49.232;9.222;2022-09-11T05:10:57;4.27;;;3.53;;
20080;SDS011;10200;49.232;9.222;2022-09-11T05:13:24;4.87;;;3.53;;
20080;SDS011;10200;49.232;9.222;2022-09-11T05:15:51;4.20;;;3.60;;
20080;SDS011;10200;49.232;9.222;2022-09-11T05:18:16;4.43;;;3.92;;
20080;SDS011;10200;49.232;9.222;2022-09-11T05:20:42;3.78;;;3.45;;
20080;SDS011;10200;49.232;9.222;2022-09-11T05:23:09;4.23;;;3.47;;
20080;SDS011;10200;49.232;9.222;2022-09-11T05:25:36;4.47;;;3.70;;
20080;SDS011;10200;49.232;9.222;2022-09-11T05:28:02;5.30;;;3.57;;
20080;SDS011;10200;49.232;9.222;2022-09-11T05:30:28;4.20;;;3.63;;
20080;SDS011;10200;49.232;9.222;2022-09-11T05:32:54;4.37;;;3.43;;
20080;SDS011;10200;49.232;9.222;2022-09-11T05:35:22;3.53;;;3.13;;
20080;SDS011;10200;49.232;9.222;2022-09-11T05:37:48;3.78;;;3.40;;
20080;SDS011;10200;49.232;9.222;2022-09-11T05:40:14;3.53;;;3.23;;
20080;SDS011;10200;49.232;9.222;2022-09-11T05:42:40;6.13;;;3.80;;
20080;SDS011;10200;49.232;9.222;2022-09-11T05:45:06;5.67;;;3.60;;
20080;SDS011;10200;49.232;9.222;2022-09-11T05:47:31;4.43;;;4.03;;
20080;SDS011;10200;49.232;9.222;2022-09-11T05:49:57;5.87;;;3.47;;
20080;SDS011;10200;49.232;9.222;2022-09-11T05:52:23;5.93;;;3.50;;
20080;SDS011;10200;49.232;9.222;2022-09-11T05:54:49;5.20;;;3.78;;
20080;SDS011;10200;49.232;9.222;2022-09-11T05:57:17;5.30;;;3.55;;
20080;SDS011;10200;49.232;9.222;2022-09-11T05:59:43;5.93;;;4.20;;
20080;SDS011;10200;49.232;9.222;2022-09-11T06:02:09;5.83;;;4.10;;
20080;SDS011;10200;49.232;9.222;2022-09-11T06:04:35;4.10;;;3.33;;
20080;SDS011;10200;49.232;9.222;2022-09-11T06:07:01;4.93;;;3.53;;
20080;SDS011;10200;49.232;9.222;2022-09-11T06:09:27;6.63;;;4.00;;
20080;SDS011;10200;49.232;9.222;2022-09-11T06:11:53;4.82;;;4.35;;
20080;SDS011;10200;49.232;9.222;2022-09-11T06:14:18;4.72;;;3.97;;
20080;SDS011;10200;49.232;9.222;2022-09-11T06:16:45;6.27;;;4.17;;
20080;SDS011;10200;49.232;9.222;2022-09-11T06:19:12;4.30;;;3.80;;
20080;SDS011;10200;49.232;9.222;2022-09-11T06:21:38;3.95;;;3.53;;
20080;SDS011;10200;49.232;9.222;2022-09-11T06:24:04;4.57;;;4.10;;
20080;SDS011;10200;49.232;9.222;2022-09-11T06:26:30;4.50;;;3.85;;
20080;SDS011;10200;49.232;9.222;2022-09-11T06:28:56;5.95;;;4.15;;
20080;SDS011;10200;49.232;9.222;2022-09-11T06:31:22;7.23;;;4.00;;
20080;SDS011;10200;49.232;9.222;2022-09-11T06:33:49;6.78;;;4.30;;
20080;SDS011;10200;49.232;9.222;2022-09-11T06:36:17;5.60;;;4.35;;
20080;SDS011;10200;49.232;9.222;2022-09-11T06:38:43;5.88;;;5.15;;
20080;SDS011;10200;49.232;9.222;2022-09-11T06:41:11;5.50;;;4.57;;
20080;SDS011;10200;49.232;9.222;2022-09-11T06:43:39;7.53;;;4.65;;
20080;SDS011;10200;49.232;9.222;2022-09-11T06:46:09;4.27;;;3.87;;
20080;SDS011;10200;49.232;9.222;2022-09-11T06:48:41;4.72;;;3.78;;
20080;SDS011;10200;49.232;9.222;2022-09-11T06:51:08;5.25;;;4.75;;
20080;SDS011;10200;49.232;9.222;2022-09-11T06:53:35;5.68;;;4.43;;
20080;SDS011;10200;49.232;9.222;2022-09-11T06:56:03;4.57;;;4.17;;
20080;SDS011;10200;49.232;9.222;2022-09-11T06:58:29;5.88;;;4.00;;
20080;SDS011;10200;49.232;9.222;2022-09-11T07:01:05;5.65;;;4.03;;
20080;SDS011;10200;49.232;9.222;2022-09-11T07:03:32;4.22;;;3.80;;
20080;SDS011;10200;49.232;9.222;2022-09-11T07:05:58;5.60;;;4.53;;
20080;SDS011;10200;49.232;9.222;2022-09-11T07:08:24;5.10;;;4.32;;
20080;SDS011;10200;49.232;9.222;2022-09-11T07:10:50;5.10;;;4.05;;
20080;SDS011;10200;49.232;9.222;2022-09-11T07:13:16;4.05;;;3.65;;
20080;SDS011;10200;49.232;9.222;2022-09-11T07:15:41;5.40;;;4.40;;
20080;SDS011;10200;49.232;9.222;2022-09-11T07:18:07;5.18;;;4.03;;
20080;SDS011;10200;49.232;9.222;2022-09-11T07:20:33;4.85;;;4.22;;
20080;SDS011;10200;49.232;9.222;2022-09-11T07:22:59;5.75;;;3.97;;
20080;SDS011;10200;49.232;9.222;2022-09-11T07:25:24;5.07;;;3.80;;
20080;SDS011;10200;49.232;9.222;2022-09-11T07:27:50;6.68;;;4.55;;
20080;SDS011;10200;49.232;9.222;2022-09-11T07:30:17;7.18;;;5.50;;
20080;SDS011;10200;49.232;9.222;2022-09-11T07:32:43;5.72;;;5.22;;
20080;SDS011;10200;49.232;9.222;2022-09-11T07:35:09;6.55;;;4.93;;
20080;SDS011;10200;49.232;9.222;2022-09-11T07:37:35;6.68;;;4.85;;
20080;SDS011;10200;49.232;9.222;2022-09-11T07:40:01;5.65;;;4.80;;
20080;SDS011;10200;49.232;9.222;2022-09-11T07:42:27;6.10;;;5.00;;
20080;SDS011;10200;49.232;9.222;2022-09-11T07:44:53;6.30;;;5.03;;
20080;SDS011;10200;49.232;9.222;2022-09-11T07:47:19;5.07;;;4.68;;
20080;SDS011;10200;49.232;9.222;2022-09-11T07:49:45;7.63;;;4.85;;
20080;SDS011;10200;49.232;9.222;2022-09-11T07:52:10;4.72;;;4.28;;
20080;SDS011;10200;49.232;9.222;2022-09-11T07:54:36;6.05;;;4.70;;
20080;SDS011;10200;49.232;9.222;2022-09-11T07:57:02;5.35;;;4.82;;
20080;SDS011;10200;49.232;9.222;2022-09-11T07:59:28;4.88;;;4.47;;
20080;SDS011;10200;49.232;9.222;2022-09-11T08:01:54;4.50;;;4.10;;
20080;SDS011;10200;49.232;9.222;2022-09-11T08:04:20;5.72;;;4.15;;
20080;SDS011;10200;49.232;9.222;2022-09-11T08:06:46;5.78;;;4.88;;
20080;SDS011;10200;49.232;9.222;2022-09-11T08:09:12;4.95;;;4.25;;
20080;SDS011;10200;49.232;9.222;2022-09-11T08:11:40;7.55;;;4.70;;
20080;SDS011;10200;49.232;9.222;2022-09-11T08:14:09;5.13;;;4.63;;
20080;SDS011;10200;49.232;9.222;2022-09-11T08:16:37;6.97;;;4.45;;
20080;SDS011;10200;49.232;9.222;2022-09-11T08:19:03;4.20;;;3.80;;
20080;SDS011;10200;49.232;9.222;2022-09-11T08:21:30;4.10;;;3.70;;
20080;SDS011;10200;49.232;9.222;2022-09-11T08:23:56;4.90;;;4.03;;
20080;SDS011;10200;49.232;9.222;2022-09-11T08:26:26;3.88;;;3.47;;
20080;SDS011;10200;49.232;9.222;2022-09-11T08:28:53;3.42;;;3.13;;
20080;SDS011;10200;49.232;9.222;2022-09-11T08:31:21;3.78;;;3.45;;
20080;SDS011;10200;49.232;9.222;2022-09-11T08:33:52;4.00;;;3.65;;
20080;SDS011;10200;49.232;9.222;2022-09-11T08:36:18;4.38;;;3.92;;
20080;SDS011;10200;49.232;9.222;2022-09-11T08:38:44;4.78;;;4.00;;
20080;SDS011;10200;49.232;9.222;2022-09-11T08:41:14;4.63;;;3.70;;
20080;SDS011;10200;49.232;9.222;2022-09-11T08:46:45;4.63;;;4.18;;
20080;SDS011;10200;49.232;9.222;2022-09-11T08:51:47;5.32;;;2.75;;
20080;SDS011;10200;49.232;9.222;2022-09-11T08:54:33;3.90;;;3.50;;
20080;SDS011;10200;49.232;9.222;2022-09-11T09:02:33;4.38;;;3.30;;
20080;SDS011;10200;49.232;9.222;2022-09-11T09:10:59;4.47;;;3.15;;
20080;SDS011;10200;49.232;9.222;2022-09-11T09:13:54;5.50;;;3.72;;
20080;SDS011;10200;49.232;9.222;2022-09-11T09:24:28;5.28;;;3.47;;
20080;SDS011;10200;49.232;9.222;2022-09-11T09:27:10;5.43;;;3.97;;
20080;SDS011;10200;49.232;9.222;2022-09-11T09:29:41;4.40;;;4.00;;
20080;SDS011;10200;49.232;9.222;2022-09-11T09:32:16;5.22;;;4.63;;
20080;SDS011;10200;49.232;9.222;2022-09-11T09:34:49;3.95;;;3.65;;
20080;SDS011;10200;49.232;9.222;2022-09-11T09:37:20;4.70;;;4.20;;
20080;SDS011;10200;49.232;9.222;2022-09-11T09:39:47;5.00;;;4.53;;
20080;SDS011;10200;49.232;9.222;2022-09-11T09:47:44;4.68;;;4.18;;
20080;SDS011;10200;49.232;9.222;2022-09-11T09:52:43;4.95;;;4.05;;
20080;SDS011;10200;49.232;9.222;2022-09-11T09:55:13;4.78;;;3.97;;
20080;SDS011;10200;49.232;9.222;2022-09-11T09:57:41;4.00;;;3.58;;
20080;SDS011;10200;49.232;9.222;2022-09-11T10:13:02;4.18;;;3.85;;
20080;SDS011;10200;49.232;9.222;2022-09-11T10:15:42;5.13;;;3.78;;
20080;SDS011;10200;49.232;9.222;2022-09-11T10:20:46;3.90;;;3.40;;
20080;SDS011;10200;49.232;9.222;2022-09-11T10:23:22;6.45;;;3.50;;
20080;SDS011;10200;49.232;9.222;2022-09-11T10:25:49;4.30;;;3.30;;
20080;SDS011;10200;49.232;9.222;2022-09-11T10:28:16;4.38;;;3.53;;
20080;SDS011;10200;49.232;9.222;2022-09-11T10:30:55;3.47;;;2.72;;
20080;SDS011;10200;49.232;9.222;2022-09-11T10:33:28;4.35;;;3.38;;
20080;SDS011;10200;49.232;9.222;2022-09-11T10:35:55;4.38;;;2.95;;
20080;SDS011;10200;49.232;9.222;2022-09-11T10:38:24;3.47;;;3.05;;
20080;SDS011;10200;49.232;9.222;2022-09-11T10:43:34;4.55;;;3.38;;
20080;SDS011;10200;49.232;9.222;2022-09-11T10:48:42;3.67;;;3.38;;
20080;SDS011;10200;49.232;9.222;2022-09-11T10:51:09;3.65;;;2.70;;
20080;SDS011;10200;49.232;9.222;2022-09-11T10:53:38;8.98;;;2.92;;
20080;SDS011;10200;49.232;9.222;2022-09-11T10:56:33;4.38;;;3.17;;
20080;SDS011;10200;49.232;9.222;2022-09-11T10:59:04;3.53;;;3.22;;
20080;SDS011;10200;49.232;9.222;2022-09-11T11:01:41;4.10;;;3.50;;
20080;SDS011;10200;49.232;9.222;2022-09-11T11:04:08;4.43;;;3.53;;
20080;SDS011;10200;49.232;9.222;2022-09-11T11:06:59;3.75;;;3.45;;
20080;SDS011;10200;49.232;9.222;2022-09-11T11:09:46;3.40;;;3.17;;
20080;SDS011;10200;49.232;9.222;2022-09-11T11:15:16;2.85;;;2.65;;
20080;SDS011;10200;49.232;9.222;2022-09-11T11:18:11;3.38;;;2.65;;
20080;SDS011;10200;49.232;9.222;2022-09-11T11:20:52;3.13;;;2.25;;
20080;SDS011;10200;49.232;9.222;2022-09-11T11:23:28;2.83;;;2.63;;
20080;SDS011;10200;49.232;9.222;2022-09-11T11:42:32;2.80;;;2.50;;
20080;SDS011;10200;49.232;9.222;2022-09-11T11:45:02;2.78;;;2.45;;
20080;SDS011;10200;49.232;9.222;2022-09-11T11:47:45;2.97;;;2.47;;
20080;SDS011;10200;49.232;9.222;2022-09-11T11:50:20;2.85;;;2.30;;
20080;SDS011;10200;49.232;9.222;2022-09-11T11:55:53;3.65;;;3.35;;
20080;SDS011;10200;49.232;9.222;2022-09-11T12:01:21;4.35;;;3.65;;
20080;SDS011;10200;49.232;9.222;2022-09-11T12:04:00;6.07;;;4.43;;
20080;SDS011;10200;49.232;9.222;2022-09-11T12:06:34;3.70;;;3.40;;
20080;SDS011;10200;49.232;9.222;2022-09-11T12:09:09;4.72;;;3.55;;
20080;SDS011;10200;49.232;9.222;2022-09-11T12:11:35;3.70;;;3.30;;
20080;SDS011;10200;49.232;9.222;2022-09-11T12:14:01;3.28;;;2.97;;
20080;SDS011;10200;49.232;9.222;2022-09-11T12:16:30;3.97;;;3.53;;
20080;SDS011;10200;49.232;9.222;2022-09-11T12:19:05;4.78;;;4.03;;
20080;SDS011;10200;49.232;9.222;2022-09-11T12:22:12;3.70;;;3.25;;
20080;SDS011;10200;49.232;9.222;2022-09-11T12:30:08;3.40;;;3.10;;
20080;SDS011;10200;49.232;9.222;2022-09-11T12:32:46;2.88;;;2.65;;
20080;SDS011;10200;49.232;9.222;2022-09-11T12:35:19;3.17;;;2.88;;
20080;SDS011;10200;49.232;9.222;2022-09-11T12:45:52;3.30;;;3.00;;
20080;SDS011;10200;49.232;9.222;2022-09-11T12:48:22;3.78;;;2.80;;
20080;SDS011;10200;49.232;9.222;2022-09-11T12:51:01;3.30;;;3.00;;
20080;SDS011;10200;49.232;9.222;2022-09-11T12:53:30;4.45;;;3.58;;
20080;SDS011;10200;49.232;9.222;2022-09-11T13:03:35;3.70;;;3.38;;
20080;SDS011;10200;49.232;9.222;2022-09-11T13:06:03;4.10;;;3.20;;
20080;SDS011;10200;49.232;9.222;2022-09-11T13:08:48;3.67;;;3.35;;
20080;SDS011;10200;49.232;9.222;2022-09-11T13:16:52;3.75;;;3.10;;
20080;SDS011;10200;49.232;9.222;2022-09-11T13:19:18;4.22;;;3.58;;
20080;SDS011;10200;49.232;9.222;2022-09-11T13:21:45;5.97;;;3.75;;
20080;SDS011;10200;49.232;9.222;2022-09-11T13:24:32;3.50;;;3.20;;
20080;SDS011;10200;49.232;9.222;2022-09-11T13:27:05;3.72;;;3.40;;
20080;SDS011;10200;49.232;9.222;2022-09-11T13:29:37;3.80;;;3.50;;
20080;SDS011;10200;49.232;9.222;2022-09-11T13:32:07;5.80;;;3.38;;
20080;SDS011;10200;49.232;9.222;2022-09-11T13:34:37;3.85;;;3.47;;
20080;SDS011;10200;49.232;9.222;2022-09-11T13:37:08;5.05;;;4.03;;
20080;SDS011;10200;49.232;9.222;2022-09-11T13:39:38;3.47;;;3.08;;
20080;SDS011;10200;49.232;9.222;2022-09-11T13:42:06;4.95;;;3.25;;
20080;SDS011;10200;49.232;9.222;2022-09-11T13:44:41;3.15;;;2.88;;
20080;SDS011;10200;49.232;9.222;2022-09-11T13:47:15;4.25;;;3.60;;
20080;SDS011;10200;49.232;9.222;2022-09-11T13:49:43;3.35;;;3.05;;
20080;SDS011;10200;49.232;9.222;2022-09-11T13:52:10;5.00;;;3.65;;
20080;SDS011;10200;49.232;9.222;2022-09-11T13:54:42;4.60;;;3.13;;
20080;SDS011;10200;49.232;9.222;2022-09-11T13:59:47;4.35;;;2.70;;
20080;SDS011;10200;49.232;9.222;2022-09-11T14:02:21;4.05;;;2.78;;
20080;SDS011;10200;49.232;9.222;2022-09-11T14:04:49;4.68;;;2.75;;
20080;SDS011;10200;49.232;9.222;2022-09-11T14:07:23;4.43;;;2.72;;
20080;SDS011;10200;49.232;9.222;2022-09-11T14:10:33;2.95;;;2.65;;
20080;SDS011;10200;49.232;9.222;2022-09-11T14:12:53;3.88;;;2.58;;
20080;SDS011;10200;49.232;9.222;2022-09-11T14:15:32;3.92;;;2.75;;
20080;SDS011;10200;49.232;9.222;2022-09-11T14:18:05;3.00;;;2.60;;
20080;SDS011;10200;49.232;9.222;2022-09-11T14:20:35;2.67;;;2.38;;
20080;SDS011;10200;49.232;9.222;2022-09-11T14:23:11;3.15;;;2.78;;
20080;SDS011;10200;49.232;9.222;2022-09-11T14:26:01;2.88;;;1.90;;
20080;SDS011;10200;49.232;9.222;2022-09-11T14:28:42;4.50;;;2.90;;
20080;SDS011;10200;49.232;9.222;2022-09-11T14:31:11;2.42;;;1.98;;
20080;SDS011;10200;49.232;9.222;2022-09-11T14:33:38;3.35;;;2.60;;
20080;SDS011;10200;49.232;9.222;2022-09-11T14:36:06;3.65;;;2.80;;
20080;SDS011;10200;49.232;9.222;2022-09-11T14:38:43;6.15;;;3.47;;
20080;SDS011;10200;49.232;9.222;2022-09-11T14:41:08;2.90;;;2.70;;
20080;SDS011;10200;49.232;9.222;2022-09-11T14:43:34;2.53;;;2.33;;
20080;SDS011;10200;49.232;9.222;2022-09-11T14:46:02;2.80;;;2.60;;
20080;SDS011;10200;49.232;9.222;2022-09-11T14:48:28;3.25;;;2.50;;
20080;SDS011;10200;49.232;9.222;2022-09-11T14:50:55;2.28;;;2.08;;
20080;SDS011;10200;49.232;9.222;2022-09-11T14:53:29;3.08;;;2.75;;
20080;SDS011;10200;49.232;9.222;2022-09-11T14:55:59;2.85;;;2.47;;
20080;SDS011;10200;49.232;9.222;2022-09-11T14:58:26;2.85;;;2.55;;
20080;SDS011;10200;49.232;9.222;2022-09-11T15:00:53;3.30;;;2.70;;
20080;SDS011;10200;49.232;9.222;2022-09-11T15:03:19;3.17;;;2.72;;
20080;SDS011;10200;49.232;9.222;2022-09-11T15:05:46;2.83;;;2.60;;
20080;SDS011;10200;49.232;9.222;2022-09-11T15:08:17;3.20;;;2.90;;
20080;SDS011;10200;49.232;9.222;2022-09-11T15:10:43;3.00;;;2.50;;
20080;SDS011;10200;49.232;9.222;2022-09-11T15:13:10;2.50;;;2.30;;
20080;SDS011;10200;49.232;9.222;2022-09-11T15:15:37;2.75;;;2.30;;
20080;SDS011;10200;49.232;9.222;2022-09-11T15:18:04;2.95;;;2.65;;
20080;SDS011;10200;49.232;9.222;2022-09-11T15:20:31;2.78;;;2.42;;
20080;SDS011;10200;49.232;9.222;2022-09-11T15:22:56;2.75;;;2.55;;
20080;SDS011;10200;49.232;9.222;2022-09-11T15:25:22;3.33;;;2.58;;
20080;SDS011;10200;49.232;9.222;2022-09-11T15:27:48;2.67;;;2.47;;
20080;SDS011;10200;49.232;9.222;2022-09-11T15:30:15;2.47;;;2.28;;
20080;SDS011;10200;49.232;9.222;2022-09-11T15:32:42;3.13;;;2.72;;
20080;SDS011;10200;49.232;9.222;2022-09-11T15:35:08;3.40;;;2.95;;
20080;SDS011;10200;49.232;9.222;2022-09-11T15:37:36;3.70;;;3.38;;
20080;SDS011;10200;49.232;9.222;2022-09-11T15:40:03;3.65;;;3.08;;
20080;SDS011;10200;49.232;9.222;2022-09-11T15:42:31;3.17;;;2.90;;
20080;SDS011;10200;49.232;9.222;2022-09-11T15:44:58;5.40;;;3.17;;
20080;SDS011;10200;49.232;9.222;2022-09-11T15:47:24;4.97;;;3.10;;
20080;SDS011;10200;49.232;9.222;2022-09-11T15:49:50;4.72;;;3.15;;
20080;SDS011;10200;49.232;9.222;2022-09-11T15:52:16;4.07;;;2.58;;
20080;SDS011;10200;49.232;9.222;2022-09-11T15:54:41;3.05;;;2.50;;
20080;SDS011;10200;49.232;9.222;2022-09-11T15:57:09;3.53;;;3.00;;
20080;SDS011;10200;49.232;9.222;2022-09-11T15:59:35;4.95;;;3.45;;
20080;SDS011;10200;49.232;9.222;2022-09-11T16:02:01;3.15;;;2.70;;
20080;SDS011;10200;49.232;9.222;2022-09-11T16:04:27;3.17;;;2.88;;
20080;SDS011;10200;49.232;9.222;2022-09-11T16:06:55;3.28;;;2.85;;
20080;SDS011;10200;49.232;9.222;2022-09-11T16:09:22;3.08;;;2.80;;
20080;SDS011;10200;49.232;9.222;2022-09-11T16:11:49;3.00;;;2.70;;
20080;SDS011;10200;49.232;9.222;2022-09-11T16:14:22;3.75;;;2.60;;
20080;SDS011;10200;49.232;9.222;2022-09-11T16:16:51;3.13;;;2.67;;
20080;SDS011;10200;49.232;9.222;2022-09-11T16:19:19;3.25;;;2.88;;
20080;SDS011;10200;49.232;9.222;2022-09-11T16:21:46;2.72;;;2.40;;
20080;SDS011;10200;49.232;9.222;2022-09-11T16:24:13;3.67;;;2.53;;
20080;SDS011;10200;49.232;9.222;2022-09-11T16:26:39;3.65;;;2.53;;
20080;SDS011;10200;49.232;9.222;2022-09-11T16:29:06;2.78;;;2.58;;
20080;SDS011;10200;49.232;9.222;2022-09-11T16:31:33;3.30;;;3.00;;
20080;SDS011;10200;49.232;9.222;2022-09-11T16:34:01;2.55;;;2.35;;
20080;SDS011;10200;49.232;9.222;2022-09-11T16:36:28;4.82;;;2.85;;
20080;SDS011;10200;49.232;9.222;2022-09-11T16:38:55;3.55;;;3.20;;
20080;SDS011;10200;49.232;9.222;2022-09-11T16:41:21;3.13;;;2.83;;
20080;SDS011;10200;49.232;9.222;2022-09-11T16:43:51;3.47;;;3.17;;
20080;SDS011;10200;49.232;9.222;2022-09-11T16:46:21;3.35;;;2.72;;
20080;SDS011;10200;49.232;9.222;2022-09-11T16:48:49;3.80;;;2.60;;
20080;SDS011;10200;49.232;9.222;2022-09-11T16:51:16;3.58;;;2.90;;
20080;SDS011;10200;49.232;9.222;2022-09-11T16:53:43;4.60;;;3.35;;
20080;SDS011;10200;49.232;9.222;2022-09-11T16:56:10;4.78;;;3.45;;
20080;SDS011;10200;49.232;9.222;2022-09-11T16:58:37;4.45;;;3.30;;
20080;SDS011;10200;49.232;9.222;2022-09-11T17:01:04;5.25;;;3.70;;
20080;SDS011;10200;49.232;9.222;2022-09-11T17:03:35;2.90;;;2.70;;
20080;SDS011;10200;49.232;9.222;2022-09-11T17:06:02;3.33;;;3.03;;
20080;SDS011;10200;49.232;9.222;2022-09-11T17:08:29;2.85;;;2.65;;
20080;SDS011;10200;49.232;9.222;2022-09-11T17:10:56;4.78;;;2.85;;
20080;SDS011;10200;49.232;9.222;2022-09-11T17:13:24;4.80;;;3.08;;
20080;SDS011;10200;49.232;9.222;2022-09-11T17:16:03;3.00;;;2.80;;
20080;SDS011;10200;49.232;9.222;2022-09-11T17:18:51;3.83;;;3.10;;
20080;SDS011;10200;49.232;9.222;2022-09-11T17:21:18;5.50;;;3.28;;
20080;SDS011;10200;49.232;9.222;2022-09-11T17:23:47;4.00;;;2.85;;
20080;SDS011;10200;49.232;9.222;2022-09-11T17:26:13;3.63;;;3.05;;
20080;SDS011;10200;49.232;9.222;2022-09-11T17:28:41;4.20;;;3.40;;
20080;SDS011;10200;49.232;9.222;2022-09-11T17:31:10;4.38;;;2.72;;
20080;SDS011;10200;49.232;9.222;2022-09-11T17:33:38;3.45;;;3.15;;